Time;durP1;ratioP1;P1;durP2;ratioP2;P2;SDS_P1;SDS_P2;PMS_P1;PMS_P2;Temp;Humidity;BMP_temperature;BMP_pressure;BME280_temperature;BME280_humidity;BME280_pressure;Samples;Min_cycle;Max_cycle;Signal;HPM_P1;HPM_P2
2021/11/19 00:00:42;;;;;;;50.40;18.90;;;10.40;82.00;;;;;;5010841;28;20676;-76
2021/11/19 00:03:09;;;;;;;44.80;20.58;;;10.40;80.80;;;;;;5006551;28;20477;-75
2021/11/19 00:05:35;;;;;;;45.85;18.20;;;10.40;82.30;;;;;;4997561;28;20406;-76
2021/11/19 00:08:00;;;;;;;46.10;20.08;;;10.30;81.90;;;;;;4991071;28;20397;-76
2021/11/19 00:10:26;;;;;;;44.60;17.67;;;10.30;81.90;;;;;;5008379;28;20874;-76
2021/11/19 00:12:52;;;;;;;48.42;18.88;;;10.40;79.50;;;;;;5009760;28;20404;-75
2021/11/19 00:15:18;;;;;;;46.90;18.95;;;10.40;80.00;;;;;;5010720;28;20467;-76
2021/11/19 00:17:44;;;;;;;44.45;18.38;;;10.40;78.80;;;;;;5008794;28;20396;-76
2021/11/19 00:20:13;;;;;;;52.57;19.07;;;10.50;77.70;;;;;;5010448;28;20385;-77
2021/11/19 00:22:40;;;;;;;40.47;19.40;;;10.60;74.10;;;;;;5012827;28;20377;-76
2021/11/19 00:25:06;;;;;;;48.85;18.42;;;10.60;74.50;;;;;;5015016;28;20476;-76
2021/11/19 00:27:34;;;;;;;48.72;19.02;;;10.60;72.70;;;;;;5015502;28;20397;-76
2021/11/19 00:29:59;;;;;;;43.30;19.10;;;10.60;73.60;;;;;;5016903;28;20388;-76
2021/11/19 00:32:25;;;;;;;43.33;20.10;;;10.60;73.60;;;;;;5017336;28;20389;-76
2021/11/19 00:34:50;;;;;;;50.57;20.30;;;10.60;73.40;;;;;;5010111;28;20393;-76
2021/11/19 00:37:19;;;;;;;48.78;21.00;;;10.60;73.80;;;;;;5015126;28;20455;-76
2021/11/19 00:39:45;;;;;;;41.55;18.38;;;10.60;75.20;;;;;;5014196;28;20474;-77
2021/11/19 00:42:11;;;;;;;50.13;21.13;;;10.60;74.60;;;;;;5012362;28;20451;-76
2021/11/19 00:44:37;;;;;;;44.47;20.52;;;10.60;74.80;;;;;;5005781;28;20406;-76
2021/11/19 00:47:04;;;;;;;47.35;21.05;;;10.60;75.30;;;;;;4994565;28;20411;-76
2021/11/19 00:49:33;;;;;;;53.53;22.05;;;10.60;76.30;;;;;;4994674;28;20406;-76
2021/11/19 00:52:00;;;;;;;43.15;20.40;;;10.70;75.20;;;;;;4995593;28;20500;-77
2021/11/19 00:54:26;;;;;;;51.13;21.92;;;10.60;75.40;;;;;;5013771;28;20412;-76
2021/11/19 00:56:56;;;;;;;55.70;22.80;;;10.60;77.10;;;;;;5008569;28;20411;-76
2021/11/19 00:59:23;;;;;;;46.55;19.90;;;10.60;77.00;;;;;;5012508;28;20420;-76
2021/11/19 01:01:56;;;;;;;49.08;22.23;;;10.60;77.10;;;;;;5014129;28;20414;-76
2021/11/19 01:04:22;;;;;;;47.55;20.83;;;10.70;76.20;;;;;;5014329;28;20839;-76
2021/11/19 01:06:49;;;;;;;48.85;21.20;;;10.60;76.80;;;;;;5013273;28;20424;-76
2021/11/19 01:09:21;;;;;;;55.00;21.45;;;10.60;76.90;;;;;;5014655;28;20415;-76
2021/11/19 01:11:48;;;;;;;44.55;21.27;;;10.70;75.60;;;;;;5018263;28;20568;-76
2021/11/19 01:14:23;;;;;;;53.53;23.50;;;10.70;75.90;;;;;;5024654;28;20406;-76
2021/11/19 01:16:54;;;;;;;57.97;21.83;;;10.70;76.40;;;;;;5016554;28;20389;-75
2021/11/19 01:19:54;;;;;;;52.30;22.40;;;10.70;77.10;;;;;;5025620;28;20484;-76
2021/11/19 01:22:28;;;;;;;57.40;23.92;;;10.60;78.20;;;;;;5024908;28;20397;-75
2021/11/19 01:24:53;;;;;;;53.78;24.00;;;10.60;77.60;;;;;;5013666;28;20409;-77
2021/11/19 01:27:21;;;;;;;56.70;23.38;;;10.60;77.90;;;;;;5015162;28;20468;-76
2021/11/19 01:29:47;;;;;;;60.20;24.40;;;10.60;79.40;;;;;;5024289;28;20435;-77
2021/11/19 01:32:16;;;;;;;56.55;22.85;;;10.60;79.50;;;;;;5025857;28;20407;-77
2021/11/19 01:34:42;;;;;;;58.30;24.17;;;10.50;81.30;;;;;;5023896;28;20399;-76
2021/11/19 01:37:09;;;;;;;51.67;23.88;;;10.50;83.70;;;;;;5016255;28;20412;-76
2021/11/19 01:39:36;;;;;;;50.67;23.95;;;10.50;82.20;;;;;;5020330;28;20428;-76
2021/11/19 01:42:14;;;;;;;52.93;23.50;;;10.50;83.00;;;;;;5011050;28;20479;-77
2021/11/19 01:44:54;;;;;;;47.05;23.45;;;10.50;83.20;;;;;;5027585;28;20766;-76
2021/11/19 01:47:21;;;;;;;53.70;25.98;;;10.50;83.40;;;;;;5012582;28;20410;-76
2021/11/19 01:49:47;;;;;;;55.70;23.45;;;10.50;84.00;;;;;;5012834;28;20397;-77
2021/11/19 01:52:17;;;;;;;60.28;24.25;;;10.50;84.30;;;;;;5024027;28;20377;-77
2021/11/19 01:54:50;;;;;;;57.63;23.73;;;10.50;84.40;;;;;;5032451;28;20431;-76
2021/11/19 01:57:43;;;;;;;51.97;24.33;;;10.50;84.50;;;;;;5012630;28;20930;-75
2021/11/19 02:00:20;;;;;;;51.63;23.85;;;10.60;84.90;;;;;;5012526;28;20420;-76
2021/11/19 02:02:50;;;;;;;52.88;23.92;;;10.60;83.80;;;;;;5012680;28;20754;-76
2021/11/19 02:05:30;;;;;;;48.80;24.25;;;10.70;82.90;;;;;;4992958;28;20391;-76
2021/11/19 02:08:03;;;;;;;46.67;23.83;;;10.70;82.70;;;;;;4992572;28;20398;-76
2021/11/19 02:10:43;;;;;;;54.10;23.83;;;10.60;83.50;;;;;;4991206;28;20903;-77
2021/11/19 02:13:24;;;;;;;57.72;25.10;;;10.60;84.60;;;;;;5006925;28;20841;-77
2021/11/19 02:16:07;;;;;;;55.30;24.98;;;10.60;84.90;;;;;;4992093;28;20418;-77
2021/11/19 02:18:42;;;;;;;49.13;23.73;;;10.70;84.00;;;;;;5008193;28;20454;-77
2021/11/19 02:21:12;;;;;;;48.63;23.63;;;10.60;85.00;;;;;;5014277;28;20385;-76
2021/11/19 02:23:46;;;;;;;52.13;25.35;;;10.60;86.30;;;;;;5012227;28;20389;-76
2021/11/19 02:26:15;;;;;;;54.10;25.77;;;10.60;85.20;;;;;;5013490;28;20414;-76
2021/11/19 02:28:43;;;;;;;58.90;26.65;;;10.60;86.10;;;;;;5027101;28;20389;-76
2021/11/19 02:31:21;;;;;;;59.72;27.25;;;10.60;87.70;;;;;;5030521;28;20475;-76
2021/11/19 02:33:50;;;;;;;56.13;26.88;;;10.60;87.50;;;;;;5028893;28;20393;-77
2021/11/19 02:36:19;;;;;;;47.40;25.90;;;10.60;89.00;;;;;;5026901;28;20460;-77
2021/11/19 02:39:00;;;;;;;54.97;26.30;;;10.60;88.70;;;;;;5011639;28;20802;-77
2021/11/19 02:41:28;;;;;;;51.58;24.92;;;10.60;88.00;;;;;;5012362;28;20812;-76
2021/11/19 02:44:02;;;;;;;53.13;25.38;;;10.60;89.80;;;;;;5012932;28;20393;-76
2021/11/19 02:46:33;;;;;;;51.70;23.98;;;10.60;90.30;;;;;;5012918;28;20413;-77
2021/11/19 02:48:59;;;;;;;51.35;24.33;;;10.60;89.40;;;;;;5012849;28;20917;-77
2021/11/19 02:51:27;;;;;;;52.70;24.73;;;10.70;89.20;;;;;;5011878;28;20405;-77
2021/11/19 02:53:53;;;;;;;56.85;23.98;;;10.60;90.00;;;;;;5014370;28;20398;-76
2021/11/19 02:56:21;;;;;;;50.15;25.13;;;10.60;89.70;;;;;;5004244;28;20394;-77
2021/11/19 02:58:53;;;;;;;44.53;24.60;;;10.60;90.20;;;;;;5000062;28;20424;-75
2021/11/19 03:01:25;;;;;;;50.63;25.77;;;10.60;91.00;;;;;;5012022;28;20455;-76
2021/11/19 03:04:08;;;;;;;52.40;26.63;;;10.50;92.40;;;;;;5010788;28;20470;-76
2021/11/19 03:06:44;;;;;;;47.63;24.60;;;10.60;93.50;;;;;;5012487;28;20417;-75
2021/11/19 03:09:10;;;;;;;52.75;24.13;;;10.60;92.30;;;;;;5011442;28;20766;-75
2021/11/19 03:11:37;;;;;;;51.58;24.83;;;10.50;94.00;;;;;;5009613;28;20937;-76
2021/11/19 03:14:05;;;;;;;52.67;25.92;;;10.50;94.40;;;;;;5010229;28;20393;-75
2021/11/19 03:16:31;;;;;;;55.83;24.98;;;10.50;94.10;;;;;;5007723;28;20492;-76
2021/11/19 03:18:57;;;;;;;52.53;25.20;;;10.50;95.10;;;;;;5029171;28;20396;-77
2021/11/19 03:21:24;;;;;;;61.00;25.40;;;10.50;96.30;;;;;;5028125;28;20397;-76
2021/11/19 03:23:51;;;;;;;48.80;25.75;;;10.50;95.20;;;;;;5025664;28;20487;-76
2021/11/19 03:26:17;;;;;;;52.70;25.70;;;10.50;95.30;;;;;;5025775;28;20408;-76
2021/11/19 03:28:44;;;;;;;56.65;26.73;;;10.50;94.90;;;;;;5024390;28;20385;-77
2021/11/19 03:31:13;;;;;;;55.35;25.95;;;10.50;95.80;;;;;;5015964;28;20452;-76
2021/11/19 03:33:42;;;;;;;57.67;26.33;;;10.50;95.20;;;;;;5015437;28;20459;-78
2021/11/19 03:36:10;;;;;;;56.25;26.15;;;10.50;95.60;;;;;;5015539;28;20761;-77
2021/11/19 03:38:38;;;;;;;54.60;25.83;;;10.50;95.10;;;;;;5015681;28;20754;-77
2021/11/19 03:41:05;;;;;;;52.22;25.17;;;10.50;96.10;;;;;;5014605;28;20451;-79
2021/11/19 03:43:36;;;;;;;53.10;26.08;;;10.50;97.20;;;;;;5013369;28;20400;-77
2021/11/19 03:46:07;;;;;;;51.55;26.27;;;10.50;97.60;;;;;;5015265;28;20405;-78
2021/11/19 03:48:34;;;;;;;53.65;25.23;;;10.50;97.90;;;;;;5014978;28;20454;-78
2021/11/19 03:51:16;;;;;;;48.35;25.17;;;10.50;99.30;;;;;;5014801;28;20380;-78
2021/11/19 03:53:42;;;;;;;59.13;26.37;;;10.50;97.90;;;;;;5015233;28;20424;-78
2021/11/19 03:56:08;;;;;;;52.97;25.73;;;10.50;98.50;;;;;;5015744;28;20404;-79
2021/11/19 03:58:36;;;;;;;54.08;25.65;;;10.60;97.00;;;;;;5019068;28;20401;-81
2021/11/19 04:01:13;;;;;;;51.40;24.20;;;10.70;95.80;;;;;;5019641;28;20399;-79
2021/11/19 04:03:39;;;;;;;51.80;24.20;;;10.70;94.10;;;;;;5023453;28;20435;-76
2021/11/19 04:06:05;;;;;;;52.03;25.20;;;10.70;94.40;;;;;;5028854;28;20554;-76
2021/11/19 04:08:31;;;;;;;55.50;25.67;;;10.60;94.90;;;;;;5019370;28;20480;-78
2021/11/19 04:10:57;;;;;;;55.58;25.58;;;10.70;95.10;;;;;;5023811;28;20397;-78
2021/11/19 04:13:23;;;;;;;55.17;25.93;;;10.60;95.70;;;;;;5025178;28;20451;-77
2021/11/19 04:15:53;;;;;;;55.27;24.47;;;10.60;97.10;;;;;;5020386;28;20396;-77
2021/11/19 04:18:19;;;;;;;55.33;25.23;;;10.50;97.40;;;;;;5020009;28;20479;-78
2021/11/19 04:20:46;;;;;;;54.67;26.17;;;10.60;97.50;;;;;;5021586;28;20404;-77
2021/11/19 04:23:12;;;;;;;44.47;24.30;;;10.70;96.60;;;;;;5018498;28;20417;-78
2021/11/19 04:25:38;;;;;;;50.97;25.77;;;10.70;95.40;;;;;;5026411;28;20545;-77
2021/11/19 04:28:04;;;;;;;56.42;26.77;;;10.60;96.50;;;;;;5020431;28;20460;-78
2021/11/19 04:30:34;;;;;;;55.07;28.10;;;10.60;96.40;;;;;;5023755;28;20395;-78
2021/11/19 04:33:00;;;;;;;54.13;28.00;;;10.60;96.80;;;;;;5031753;28;20385;-78
2021/11/19 04:35:26;;;;;;;52.45;25.65;;;10.60;97.40;;;;;;5037479;28;20612;-78
2021/11/19 04:37:52;;;;;;;50.15;26.95;;;10.70;97.10;;;;;;5018437;28;20535;-79
2021/11/19 04:40:19;;;;;;;55.75;26.88;;;10.70;95.40;;;;;;5019434;28;20393;-77
2021/11/19 04:42:46;;;;;;;50.75;27.23;;;10.70;97.30;;;;;;5018559;28;20464;-79
2021/11/19 04:45:15;;;;;;;56.38;28.02;;;10.70;96.30;;;;;;5020341;28;20419;-79
2021/11/19 04:47:41;;;;;;;54.38;28.52;;;10.70;96.60;;;;;;5018855;28;20419;-78
2021/11/19 04:50:09;;;;;;;58.28;28.80;;;10.70;98.30;;;;;;5020589;28;20395;-79
2021/11/19 04:52:35;;;;;;;59.28;30.27;;;10.60;98.60;;;;;;5020830;28;20754;-80
2021/11/19 04:55:02;;;;;;;60.85;30.20;;;10.60;99.30;;;;;;5020259;28;20412;-79
2021/11/19 04:57:28;;;;;;;57.50;30.77;;;10.60;99.10;;;;;;5022001;28;20435;-80
2021/11/19 04:59:53;;;;;;;64.33;30.80;;;10.70;99.40;;;;;;5022106;28;20384;-80
2021/11/19 05:02:21;;;;;;;59.63;29.93;;;10.70;99.00;;;;;;5022098;28;20381;-79
2021/11/19 05:04:47;;;;;;;59.83;30.35;;;10.70;98.90;;;;;;5038785;28;20393;-78
2021/11/19 05:07:14;;;;;;;55.80;30.70;;;10.70;98.10;;;;;;5023229;28;20889;-79
2021/11/19 05:09:40;;;;;;;60.92;30.80;;;10.70;99.70;;;;;;5023044;28;20393;-79
2021/11/19 05:12:14;;;;;;;59.03;29.27;;;10.70;99.30;;;;;;5025590;28;20905;-78
2021/11/19 05:14:40;;;;;;;54.33;29.30;;;10.70;98.20;;;;;;5027850;28;20397;-77
2021/11/19 05:17:07;;;;;;;58.30;29.67;;;10.70;99.10;;;;;;5025203;28;20415;-78
2021/11/19 05:19:34;;;;;;;57.08;28.80;;;10.70;98.90;;;;;;5026035;28;20384;-77
2021/11/19 05:22:01;;;;;;;52.58;29.00;;;10.80;97.30;;;;;;5008296;28;20509;-78
2021/11/19 05:24:26;;;;;;;59.88;29.27;;;10.80;97.50;;;;;;5006326;28;20888;-77
2021/11/19 05:26:53;;;;;;;64.22;29.85;;;10.80;97.60;;;;;;5028502;28;20422;-79
2021/11/19 05:29:20;;;;;;;59.43;29.93;;;10.70;99.40;;;;;;5006390;28;20402;-77
2021/11/19 05:31:47;;;;;;;58.90;30.77;;;10.70;99.90;;;;;;5008086;28;20400;-76
2021/11/19 05:34:14;;;;;;;65.75;31.17;;;10.80;99.60;;;;;;5008650;28;20452;-78
2021/11/19 05:36:41;;;;;;;59.70;30.98;;;10.80;98.80;;;;;;5012583;28;20406;-77
2021/11/19 05:39:07;;;;;;;64.18;32.00;;;10.80;98.10;;;;;;5018194;28;20393;-80
2021/11/19 05:41:33;;;;;;;60.22;32.42;;;10.90;97.20;;;;;;5025028;28;20387;-79
2021/11/19 05:44:00;;;;;;;62.53;33.20;;;10.80;97.70;;;;;;5017200;28;20407;-75
2021/11/19 05:46:27;;;;;;;66.22;33.83;;;10.80;98.90;;;;;;5027328;28;20413;-76
2021/11/19 05:48:55;;;;;;;69.90;33.38;;;10.80;99.60;;;;;;5023509;28;20407;-77
2021/11/19 05:51:23;;;;;;;65.53;33.10;;;10.90;98.60;;;;;;5027636;28;20385;-76
2021/11/19 05:53:49;;;;;;;58.40;31.58;;;10.80;98.60;;;;;;5022881;28;20399;-74
2021/11/19 05:56:17;;;;;;;62.28;32.17;;;10.90;99.20;;;;;;5008337;28;20473;-80
2021/11/19 05:58:43;;;;;;;57.13;31.77;;;10.90;98.50;;;;;;5002904;28;20434;-79
2021/11/19 06:01:13;;;;;;;59.67;30.67;;;10.90;97.50;;;;;;5003805;28;20397;-77
2021/11/19 06:03:40;;;;;;;57.63;30.60;;;10.90;97.20;;;;;;5025299;28;20385;-79
2021/11/19 06:06:09;;;;;;;60.75;31.05;;;11.00;95.90;;;;;;5014548;28;20414;-79
2021/11/19 06:08:36;;;;;;;62.67;31.50;;;11.00;96.30;;;;;;5001468;28;20426;-79
2021/11/19 06:11:11;;;;;;;67.10;32.30;;;11.00;95.90;;;;;;5000431;28;20429;-79
2021/11/19 06:13:42;;;;;;;62.30;29.83;;;10.90;98.40;;;;;;5003125;28;20390;-78
2021/11/19 06:16:13;;;;;;;61.65;30.77;;;11.00;97.50;;;;;;5010262;28;20412;-80
2021/11/19 06:18:44;;;;;;;56.55;31.70;;;11.00;98.00;;;;;;5016607;28;20388;-78
2021/11/19 06:21:18;;;;;;;57.95;31.50;;;11.00;97.30;;;;;;5017842;28;20396;-79
2021/11/19 06:23:46;;;;;;;62.45;31.10;;;10.90;98.70;;;;;;5016116;28;20735;-78
2021/11/19 06:26:15;;;;;;;56.53;29.90;;;10.90;98.70;;;;;;5015702;28;20405;-79
2021/11/19 06:28:45;;;;;;;65.10;31.83;;;10.90;99.90;;;;;;5006782;28;20452;-78
2021/11/19 06:31:14;;;;;;;59.10;31.23;;;10.90;99.50;;;;;;5018418;28;20446;-78
2021/11/19 06:33:40;;;;;;;60.55;32.17;;;10.90;99.90;;;;;;5018291;28;20387;-78
2021/11/19 06:36:08;;;;;;;55.17;30.65;;;10.90;99.90;;;;;;5018322;28;20400;-78
2021/11/19 06:38:34;;;;;;;55.45;30.17;;;11.00;99.50;;;;;;5018015;28;20404;-78
2021/11/19 06:41:00;;;;;;;59.40;31.40;;;11.00;97.80;;;;;;5016965;28;20900;-78
2021/11/19 06:43:26;;;;;;;61.03;32.70;;;11.00;97.90;;;;;;5017079;28;20500;-78
2021/11/19 06:45:52;;;;;;;58.90;30.63;;;11.00;99.00;;;;;;5021012;28;20402;-77
2021/11/19 06:48:18;;;;;;;62.70;33.20;;;11.00;98.90;;;;;;5026493;28;20422;-76
2021/11/19 06:50:44;;;;;;;61.63;32.58;;;10.90;99.90;;;;;;5021569;28;20397;-75
2021/11/19 06:53:11;;;;;;;61.38;31.58;;;11.00;99.90;;;;;;5010663;28;20400;-76
2021/11/19 06:55:37;;;;;;;60.35;29.92;;;11.00;99.90;;;;;;5011338;28;20397;-75
2021/11/19 06:58:05;;;;;;;60.40;30.38;;;11.00;99.50;;;;;;5005621;28;20410;-76
2021/11/19 07:00:35;;;;;;;51.75;29.08;;;11.00;99.90;;;;;;5016097;28;20493;-76
2021/11/19 07:03:01;;;;;;;51.07;27.33;;;11.10;99.90;;;;;;5019052;28;20415;-76
2021/11/19 07:05:28;;;;;;;57.25;28.63;;;11.10;99.20;;;;;;5016976;28;20834;-75
2021/11/19 07:07:54;;;;;;;56.50;30.00;;;11.10;98.90;;;;;;5020627;28;20538;-74
2021/11/19 07:10:22;;;;;;;51.93;27.70;;;11.00;98.70;;;;;;5022485;28;20387;-76
2021/11/19 07:12:47;;;;;;;48.17;27.52;;;11.20;98.00;;;;;;5009895;28;20931;-76
2021/11/19 07:15:16;;;;;;;46.90;26.48;;;11.20;96.40;;;;;;5010981;28;20403;-78
2021/11/19 07:17:45;;;;;;;52.03;27.52;;;11.20;95.90;;;;;;5025886;28;20408;-79
2021/11/19 07:20:14;;;;;;;50.63;27.35;;;11.00;98.10;;;;;;5037797;28;20413;-78
2021/11/19 07:22:41;;;;;;;54.30;27.17;;;11.10;98.90;;;;;;5018117;28;20780;-79
2021/11/19 07:25:10;;;;;;;42.30;25.45;;;11.10;97.80;;;;;;5006580;28;21302;-79
2021/11/19 07:27:36;;;;;;;48.92;26.17;;;11.10;98.50;;;;;;5007955;28;20910;-76
2021/11/19 07:30:04;;;;;;;45.85;25.25;;;11.10;98.20;;;;;;5002552;28;20401;-77
2021/11/19 07:32:30;;;;;;;45.08;24.70;;;11.10;98.90;;;;;;4998692;28;20390;-76
2021/11/19 07:34:55;;;;;;;46.63;26.23;;;11.10;98.30;;;;;;5009788;28;20428;-74
2021/11/19 07:37:23;;;;;;;44.20;25.20;;;11.20;98.20;;;;;;5016428;28;20474;-76
2021/11/19 07:39:50;;;;;;;47.22;25.65;;;11.10;98.80;;;;;;5024160;28;20395;-73
2021/11/19 07:42:16;;;;;;;52.65;26.73;;;11.10;99.00;;;;;;5013988;28;20406;-72
2021/11/19 07:44:41;;;;;;;48.57;27.80;;;11.10;99.40;;;;;;5003139;28;20406;-73
2021/11/19 07:47:08;;;;;;;48.60;26.23;;;11.10;99.90;;;;;;5020067;28;20526;-73
2021/11/19 07:49:34;;;;;;;46.00;26.40;;;11.20;99.30;;;;;;5019667;28;20424;-73
2021/11/19 07:51:59;;;;;;;46.93;26.80;;;11.10;99.50;;;;;;5012342;28;20402;-73
2021/11/19 07:54:25;;;;;;;49.13;26.00;;;11.20;99.30;;;;;;4997105;28;20410;-73
2021/11/19 07:56:51;;;;;;;44.93;26.10;;;11.20;97.20;;;;;;4999909;28;20464;-73
2021/11/19 07:59:24;;;;;;;46.63;26.03;;;11.20;98.20;;;;;;5017130;28;20390;-73
2021/11/19 08:01:53;;;;;;;42.13;24.90;;;11.30;97.80;;;;;;5006212;28;20410;-76
2021/11/19 08:04:19;;;;;;;42.75;24.95;;;11.30;97.10;;;;;;5005218;28;20388;-73
2021/11/19 08:06:45;;;;;;;48.30;25.97;;;11.30;97.10;;;;;;5004729;28;20416;-72
2021/11/19 08:09:11;;;;;;;49.70;26.23;;;11.30;96.90;;;;;;5000077;28;20397;-73
2021/11/19 08:11:37;;;;;;;46.58;25.75;;;11.30;96.90;;;;;;4999132;28;20390;-71
2021/11/19 08:14:04;;;;;;;42.22;24.88;;;11.30;96.80;;;;;;4998987;28;20492;-75
2021/11/19 08:16:38;;;;;;;46.47;26.30;;;11.30;96.50;;;;;;5016684;28;20911;-73
2021/11/19 08:19:11;;;;;;;41.85;25.23;;;11.40;93.90;;;;;;5016309;28;20460;-75
2021/11/19 08:21:36;;;;;;;43.67;25.20;;;11.40;92.60;;;;;;5014246;28;20418;-72
2021/11/19 08:24:05;;;;;;;43.13;24.87;;;11.50;93.00;;;;;;5035971;28;20406;-71
2021/11/19 08:26:38;;;;;;;45.53;25.87;;;11.50;91.90;;;;;;5017857;28;20817;-73
2021/11/19 08:29:05;;;;;;;47.00;26.65;;;11.40;95.10;;;;;;5015066;28;20388;-71
2021/11/19 08:31:31;;;;;;;45.85;24.98;;;11.30;96.50;;;;;;5010413;28;20433;-73
2021/11/19 08:33:56;;;;;;;42.90;24.60;;;11.40;95.60;;;;;;5015083;28;20829;-72
2021/11/19 08:36:25;;;;;;;47.53;26.13;;;11.40;94.40;;;;;;5025248;28;20550;-74
2021/11/19 08:38:51;;;;;;;42.22;24.20;;;11.50;94.40;;;;;;5013784;28;20477;-72
2021/11/19 08:41:18;;;;;;;43.70;26.42;;;11.50;91.90;;;;;;5013379;28;20396;-72
2021/11/19 08:43:46;;;;;;;46.63;26.60;;;11.40;94.30;;;;;;5007680;28;20505;-72
2021/11/19 08:46:18;;;;;;;46.53;25.10;;;11.50;94.60;;;;;;5002172;28;20416;-72
2021/11/19 08:48:49;;;;;;;49.45;26.02;;;11.50;93.80;;;;;;5013392;28;20391;-72
2021/11/19 08:51:18;;;;;;;47.63;26.57;;;11.50;92.80;;;;;;5013682;28;20388;-73
2021/11/19 08:53:46;;;;;;;43.15;25.05;;;11.50;93.50;;;;;;5012363;28;20917;-72
2021/11/19 08:56:11;;;;;;;47.67;26.80;;;11.50;96.10;;;;;;5004369;28;20405;-72
2021/11/19 08:58:41;;;;;;;47.83;25.17;;;11.50;94.80;;;;;;5013475;28;20389;-72
2021/11/19 09:01:09;;;;;;;43.03;25.88;;;11.60;91.20;;;;;;5013485;28;20478;-74
2021/11/19 09:03:34;;;;;;;44.88;25.65;;;11.50;92.30;;;;;;5012495;28;20397;-73
2021/11/19 09:06:01;;;;;;;45.50;25.30;;;11.50;93.10;;;;;;5006922;28;20763;-72
2021/11/19 09:08:29;;;;;;;44.50;26.23;;;11.60;91.90;;;;;;5013361;28;20376;-73
2021/11/19 09:10:56;;;;;;;45.45;26.83;;;11.60;91.60;;;;;;5012728;28;20400;-73
2021/11/19 09:13:23;;;;;;;42.78;25.17;;;11.60;92.80;;;;;;5013599;28;20820;-73
2021/11/19 09:15:51;;;;;;;47.25;26.05;;;11.60;91.80;;;;;;5013516;28;20385;-73
2021/11/19 09:18:35;;;;;;;42.28;25.42;;;11.60;91.40;;;;;;5013006;28;20404;-72
2021/11/19 09:21:32;;;;;;;44.13;25.08;;;11.60;92.70;;;;;;5012781;28;20412;-73
2021/11/19 09:24:03;;;;;;;45.42;26.48;;;11.70;92.00;;;;;;5010655;28;20480;-73
2021/11/19 09:26:48;;;;;;;43.07;25.83;;;11.70;93.30;;;;;;5043563;23;20451;-73
2021/11/19 09:29:33;;;;;;;48.17;26.52;;;11.70;92.50;;;;;;5023306;28;20388;-73
2021/11/19 09:31:59;;;;;;;42.38;24.13;;;11.80;90.60;;;;;;5013666;28;20423;-73
2021/11/19 09:34:26;;;;;;;42.25;24.52;;;11.80;89.50;;;;;;5014157;28;20377;-73
2021/11/19 09:36:52;;;;;;;46.72;25.08;;;11.80;89.70;;;;;;5013916;28;20469;-73
2021/11/19 09:39:25;;;;;;;47.30;24.90;;;11.90;87.20;;;;;;5033234;28;20422;-74
2021/11/19 09:42:16;;;;;;;44.33;25.47;;;11.90;87.00;;;;;;5033250;28;20514;-74
2021/11/19 09:44:47;;;;;;;44.78;26.73;;;12.00;84.70;;;;;;5034684;28;20791;-73
2021/11/19 09:47:22;;;;;;;46.50;25.08;;;12.10;84.90;;;;;;5033761;28;20407;-73
2021/11/19 09:50:09;;;;;;;38.42;23.90;;;12.20;81.70;;;;;;5035154;28;20382;-74
2021/11/19 09:53:12;;;;;;;38.40;23.75;;;12.10;81.10;;;;;;5034375;28;20482;-73
2021/11/19 09:55:58;;;;;;;44.72;23.98;;;12.10;83.10;;;;;;5038177;28;20409;-73
2021/11/19 09:58:41;;;;;;;41.13;24.65;;;12.20;80.70;;;;;;5056000;28;20392;-72
2021/11/19 10:01:31;;;;;;;43.50;24.00;;;12.10;81.10;;;;;;5058057;28;20389;-73
2021/11/19 10:04:22;;;;;;;40.40;23.10;;;12.20;80.30;;;;;;5052394;28;20462;-72
2021/11/19 10:07:13;;;;;;;47.83;25.60;;;12.20;79.10;;;;;;5039686;28;20415;-74
2021/11/19 10:10:05;;;;;;;45.80;24.05;;;12.20;81.80;;;;;;5057432;28;20692;-73
2021/11/19 10:12:38;;;;;;;36.83;22.48;;;12.20;80.60;;;;;;5064155;28;20433;-73
2021/11/19 10:15:54;;;;;;;39.28;23.40;;;12.30;76.70;;;;;;5032822;28;20399;-73
2021/11/19 10:18:33;;;;;;;37.08;22.55;;;12.20;77.60;;;;;;5006190;28;20807;-74
2021/11/19 10:21:06;;;;;;;35.88;23.83;;;12.30;78.40;;;;;;5032945;28;20387;-73
2021/11/19 10:23:41;;;;;;;40.58;23.30;;;12.20;79.10;;;;;;5028200;28;20430;-73
2021/11/19 10:26:33;;;;;;;39.47;22.58;;;12.20;78.30;;;;;;5031701;28;20945;-74
2021/11/19 10:29:25;;;;;;;39.38;23.20;;;12.30;77.60;;;;;;5033115;28;20391;-73
2021/11/19 10:31:53;;;;;;;38.60;23.80;;;12.20;78.20;;;;;;5033158;28;20379;-71
2021/11/19 10:34:54;;;;;;;40.80;24.13;;;12.20;79.40;;;;;;5032331;28;20387;-75
2021/11/19 10:37:26;;;;;;;39.10;23.05;;;12.20;80.40;;;;;;5033314;28;20401;-75
2021/11/19 10:40:13;;;;;;;35.88;22.05;;;12.20;79.80;;;;;;5031567;28;20421;-73
2021/11/19 10:43:08;;;;;;;40.05;22.23;;;12.20;78.40;;;;;;5031922;28;20382;-73
2021/11/19 10:46:12;;;;;;;38.92;23.50;;;12.20;78.70;;;;;;5029323;28;20921;-75
2021/11/19 10:48:44;;;;;;;39.10;23.10;;;12.10;80.00;;;;;;5013785;28;20489;-74
2021/11/19 10:51:47;;;;;;;40.13;23.80;;;12.10;80.90;;;;;;5032557;28;20386;-72
2021/11/19 10:54:21;;;;;;;44.88;23.98;;;12.10;81.20;;;;;;5039002;28;20475;-74
2021/11/19 10:57:13;;;;;;;43.60;24.45;;;12.10;81.80;;;;;;5034251;28;20462;-73
2021/11/19 10:59:43;;;;;;;41.50;23.65;;;12.10;82.70;;;;;;5031188;28;20953;-74
2021/11/19 11:02:15;;;;;;;41.60;24.53;;;12.10;82.30;;;;;;5032472;28;20771;-73
2021/11/19 11:04:43;;;;;;;43.08;24.17;;;12.10;81.20;;;;;;5033387;28;20847;-75
2021/11/19 11:07:25;;;;;;;40.45;24.00;;;12.20;79.50;;;;;;5042407;28;20398;-73
2021/11/19 11:10:00;;;;;;;39.67;23.75;;;12.10;79.50;;;;;;5041771;28;20430;-75
2021/11/19 11:12:34;;;;;;;47.47;24.33;;;12.10;80.30;;;;;;5053617;28;20402;-72
2021/11/19 11:15:19;;;;;;;43.10;25.80;;;12.10;81.50;;;;;;5044771;28;20406;-74
2021/11/19 11:17:55;;;;;;;40.83;23.95;;;12.20;80.80;;;;;;5035300;28;20756;-73
2021/11/19 11:20:29;;;;;;;40.30;23.77;;;12.20;80.70;;;;;;5030965;28;20473;-76
2021/11/19 11:22:59;;;;;;;44.28;24.40;;;12.30;78.80;;;;;;5051106;28;20408;-76
2021/11/19 11:25:33;;;;;;;47.55;26.08;;;12.40;78.40;;;;;;5051778;28;20394;-74
2021/11/19 11:27:58;;;;;;;38.03;23.55;;;12.40;78.80;;;;;;5019220;28;20416;-74
2021/11/19 11:30:52;;;;;;;46.63;24.27;;;12.30;78.80;;;;;;5016220;28;20395;-74
2021/11/19 11:33:28;;;;;;;43.60;25.48;;;12.30;79.50;;;;;;5015630;28;20761;-75
2021/11/19 11:36:12;;;;;;;44.30;25.08;;;12.30;79.90;;;;;;5012019;28;20785;-77
2021/11/19 11:39:10;;;;;;;41.83;23.95;;;12.40;78.40;;;;;;5023403;28;20466;-73
2021/11/19 11:41:48;;;;;;;42.65;24.38;;;12.40;78.00;;;;;;5029241;28;20900;-73
2021/11/19 11:44:20;;;;;;;39.15;23.80;;;12.30;79.90;;;;;;5036659;28;20433;-73
2021/11/19 11:46:50;;;;;;;40.85;23.33;;;12.40;77.20;;;;;;5032377;28;20406;-73
2021/11/19 11:49:34;;;;;;;38.13;23.35;;;12.50;75.30;;;;;;5031797;28;20379;-73
2021/11/19 11:52:11;;;;;;;39.38;24.85;;;12.60;74.70;;;;;;5030950;28;20387;-75
2021/11/19 11:55:03;;;;;;;42.22;22.60;;;12.70;73.00;;;;;;5030662;28;20452;-74
2021/11/19 11:57:28;;;;;;;45.50;25.00;;;12.80;70.50;;;;;;5031268;28;20387;-75
2021/11/19 12:00:23;;;;;;;39.67;23.47;;;12.80;71.00;;;;;;5036330;28;20421;-75
2021/11/19 12:03:13;;;;;;;42.00;24.13;;;12.80;71.50;;;;;;5014005;28;20407;-76
2021/11/19 12:06:14;;;;;;;44.40;26.25;;;12.80;71.80;;;;;;5031275;28;20403;-76
2021/11/19 12:09:04;;;;;;;42.88;25.52;;;12.70;71.90;;;;;;5032400;28;20383;-76
2021/11/19 12:12:05;;;;;;;42.20;25.00;;;12.80;72.60;;;;;;5044138;28;20395;-76
2021/11/19 12:14:56;;;;;;;43.38;25.13;;;12.80;70.90;;;;;;5032009;28;20750;-75
2021/11/19 12:17:49;;;;;;;38.70;23.90;;;12.90;69.90;;;;;;5040193;28;20412;-74
2021/11/19 12:20:54;;;;;;;45.50;25.65;;;12.80;69.90;;;;;;5049382;28;20399;-74
2021/11/19 12:23:30;;;;;;;49.40;26.08;;;12.70;72.70;;;;;;5033081;28;20408;-76
2021/11/19 12:26:11;;;;;;;43.65;25.17;;;12.70;73.20;;;;;;5030309;28;20417;-76
2021/11/19 12:28:48;;;;;;;52.55;27.45;;;12.70;73.20;;;;;;5028372;28;20395;-77
2021/11/19 12:31:40;;;;;;;42.03;25.60;;;12.60;73.00;;;;;;5054803;28;20393;-77
2021/11/19 12:34:29;;;;;;;41.28;25.25;;;12.60;72.90;;;;;;5057230;28;20525;-76
2021/11/19 12:37:00;;;;;;;45.53;26.10;;;12.60;73.30;;;;;;5044277;28;20756;-76
2021/11/19 12:39:27;;;;;;;44.20;25.23;;;12.60;74.10;;;;;;5051957;28;20916;-76
2021/11/19 12:42:17;;;;;;;48.00;26.13;;;12.60;73.80;;;;;;5016175;28;20402;-77
2021/11/19 12:45:14;;;;;;;48.58;26.73;;;12.50;77.10;;;;;;5039697;28;20407;-78
2021/11/19 12:48:12;;;;;;;47.15;26.63;;;12.50;76.30;;;;;;5035799;28;20418;-76
2021/11/19 12:50:46;;;;;;;49.13;27.30;;;12.60;75.60;;;;;;5044844;28;20394;-76
2021/11/19 12:53:37;;;;;;;47.97;27.83;;;12.70;74.70;;;;;;5051560;28;20453;-76